DLH2184 EDDM-EDXW
Flight info
| Callsign | DLH2184 |
|---|---|
| Flight time | 1h 12m |
| Altitude | 36000 |
| Route | INPUD3Q INPUD Y102 UPALA M726 LASGA DCT ZUCKA DCT ELSOB/N0421F350 Y348 OMWEG/N0427F360 DCT BADOS DCT OLDIP |
| Aircraft | A319/M-SDE2E3FGIJ1LORWXYZ/HB1 |
Departure
| Time | 2026-04-18 05:45 |
|---|---|
| Airport | Munich Airport (EDDM) |
Arrival
| Time | 2026-04-18 06:58 |
|---|---|
| Airport | Westerland Sylt Airport (EDXW) |
| Time | Latitude | Longitude | Altitude | Speed | Heading |
|---|---|---|---|---|---|
| 2026-04-18 04:34 | 48.35549 | 11.80003 | 1486 ft | 0 kts | 263° |
| 2026-04-18 05:31 | 48.35550 | 11.80015 | 1485 ft | 4 kts | 263° |
| 2026-04-18 05:32 | 48.35553 | 11.80055 | 1485 ft | 4 kts | 264° |
| 2026-04-18 05:32 | 48.35548 | 11.80085 | 1473 ft | 4 kts | 345° |
| 2026-04-18 05:32 | 48.35527 | 11.80090 | 1473 ft | 3 kts | 353° |
| 2026-04-18 05:32 | 48.35522 | 11.80091 | 1485 ft | 0 kts | 353° |
| 2026-04-18 05:37 | 48.35537 | 11.80088 | 1478 ft | 5 kts | 353° |
| 2026-04-18 05:37 | 48.35586 | 11.80080 | 1485 ft | 9 kts | 353° |
| 2026-04-18 05:37 | 48.35652 | 11.80068 | 1478 ft | 10 kts | 357° |
| 2026-04-18 05:37 | 48.35722 | 11.80078 | 1472 ft | 10 kts | 351° |
| 2026-04-18 05:38 | 48.35794 | 11.80052 | 1477 ft | 11 kts | 324° |
| 2026-04-18 05:38 | 48.35805 | 11.79944 | 1472 ft | 11 kts | 267° |
| 2026-04-18 05:38 | 48.35796 | 11.79824 | 1479 ft | 12 kts | 263° |
| 2026-04-18 05:38 | 48.35787 | 11.79696 | 1477 ft | 13 kts | 264° |
| 2026-04-18 05:39 | 48.35777 | 11.79556 | 1474 ft | 14 kts | 263° |
| 2026-04-18 05:39 | 48.35771 | 11.79434 | 1477 ft | 10 kts | 284° |
| 2026-04-18 05:39 | 48.35830 | 11.79389 | 1475 ft | 10 kts | 352° |
| 2026-04-18 05:39 | 48.35904 | 11.79371 | 1485 ft | 11 kts | 338° |
| 2026-04-18 05:40 | 48.35977 | 11.79336 | 1475 ft | 12 kts | 353° |
| 2026-04-18 05:40 | 48.36061 | 11.79320 | 1485 ft | 13 kts | 353° |
| 2026-04-18 05:40 | 48.36086 | 11.79221 | 1485 ft | 12 kts | 262° |
| 2026-04-18 05:40 | 48.36075 | 11.79094 | 1485 ft | 13 kts | 263° |
| 2026-04-18 05:41 | 48.36066 | 11.78958 | 1481 ft | 14 kts | 262° |
| 2026-04-18 05:41 | 48.36054 | 11.78812 | 1485 ft | 14 kts | 263° |
| 2026-04-18 05:41 | 48.36042 | 11.78657 | 1485 ft | 15 kts | 263° |
| 2026-04-18 05:41 | 48.36029 | 11.78492 | 1485 ft | 16 kts | 263° |
| 2026-04-18 05:42 | 48.36016 | 11.78318 | 1485 ft | 17 kts | 263° |
| 2026-04-18 05:42 | 48.36002 | 11.78135 | 1477 ft | 18 kts | 263° |
| 2026-04-18 05:42 | 48.35987 | 11.77943 | 1485 ft | 19 kts | 263° |
| 2026-04-18 05:42 | 48.35974 | 11.77761 | 1480 ft | 14 kts | 264° |
| 2026-04-18 05:43 | 48.35998 | 11.77670 | 1478 ft | 10 kts | 329° |
| 2026-04-18 05:43 | 48.36066 | 11.77662 | 1476 ft | 10 kts | 358° |
| 2026-04-18 05:43 | 48.36136 | 11.77687 | 1478 ft | 11 kts | 37° |
| 2026-04-18 05:43 | 48.36184 | 11.77781 | 1485 ft | 12 kts | 54° |
| 2026-04-18 05:44 | 48.36237 | 11.77887 | 1479 ft | 13 kts | 52° |
| 2026-04-18 05:44 | 48.36295 | 11.78003 | 1475 ft | 15 kts | 54° |
| 2026-04-18 05:44 | 48.36351 | 11.78104 | 1474 ft | 9 kts | 30° |
| 2026-04-18 05:44 | 48.36383 | 11.78151 | 1485 ft | 6 kts | 75° |
| 2026-04-18 05:45 | 48.36396 | 11.78315 | 1479 ft | 42 kts | 83° |
| 2026-04-18 05:45 | 48.36463 | 11.79174 | 1486 ft | 120 kts | 83° |
| 2026-04-18 05:45 | 48.36571 | 11.80702 | 1716 ft | 156 kts | 85° |
| 2026-04-18 05:45 | 48.36657 | 11.82300 | 2468 ft | 152 kts | 85° |
| 2026-04-18 05:46 | 48.36754 | 11.83916 | 3042 ft | 164 kts | 84° |
| 2026-04-18 05:46 | 48.36925 | 11.85707 | 3525 ft | 181 kts | 72° |
| 2026-04-18 05:46 | 48.37756 | 11.87181 | 3974 ft | 197 kts | 27° |
| 2026-04-18 05:46 | 48.39120 | 11.87385 | 4489 ft | 212 kts | 348° |
| 2026-04-18 05:47 | 48.40632 | 11.86727 | 4938 ft | 239 kts | 343° |
| 2026-04-18 05:47 | 48.42240 | 11.85723 | 5520 ft | 263 kts | 327° |
| 2026-04-18 05:47 | 48.43608 | 11.83781 | 6350 ft | 276 kts | 313° |
| 2026-04-18 05:47 | 48.44870 | 11.81570 | 7351 ft | 280 kts | 310° |
| 2026-04-18 05:48 | 48.46111 | 11.79287 | 8348 ft | 284 kts | 310° |
| 2026-04-18 05:48 | 48.47367 | 11.76964 | 9318 ft | 288 kts | 310° |
| 2026-04-18 05:48 | 48.48648 | 11.74623 | 10270 ft | 291 kts | 310° |
| 2026-04-18 05:48 | 48.50140 | 11.72443 | 10807 ft | 311 kts | 324° |
| 2026-04-18 05:49 | 48.51914 | 11.70479 | 11494 ft | 321 kts | 324° |
| 2026-04-18 05:49 | 48.53731 | 11.68492 | 12403 ft | 324 kts | 324° |
| 2026-04-18 05:49 | 48.55560 | 11.66493 | 13316 ft | 325 kts | 324° |
| 2026-04-18 05:49 | 48.57403 | 11.64475 | 14162 ft | 329 kts | 324° |
| 2026-04-18 05:50 | 48.59255 | 11.62438 | 14972 ft | 331 kts | 323° |
| 2026-04-18 05:50 | 48.61125 | 11.60371 | 15764 ft | 335 kts | 323° |
| 2026-04-18 05:50 | 48.63010 | 11.58278 | 16523 ft | 338 kts | 323° |
| 2026-04-18 05:50 | 48.64911 | 11.56162 | 17260 ft | 341 kts | 323° |
| 2026-04-18 05:51 | 48.66895 | 11.54183 | 17960 ft | 345 kts | 331° |
| 2026-04-18 05:51 | 48.69112 | 11.52746 | 18662 ft | 349 kts | 338° |
| 2026-04-18 05:51 | 48.71386 | 11.51436 | 19362 ft | 351 kts | 338° |
| 2026-04-18 05:51 | 48.73681 | 11.50112 | 20045 ft | 354 kts | 338° |
| 2026-04-18 05:52 | 48.75208 | 11.49229 | 20491 ft | 356 kts | 338° |
| 2026-04-18 05:52 | 48.77535 | 11.47878 | 21143 ft | 359 kts | 338° |
| 2026-04-18 05:52 | 48.79878 | 11.46513 | 21786 ft | 362 kts | 338° |
| 2026-04-18 05:52 | 48.82240 | 11.45138 | 22404 ft | 365 kts | 338° |
| 2026-04-18 05:53 | 48.84620 | 11.43756 | 22988 ft | 368 kts | 338° |
| 2026-04-18 05:53 | 48.87024 | 11.42360 | 23575 ft | 371 kts | 338° |
| 2026-04-18 05:53 | 48.89448 | 11.40952 | 24157 ft | 374 kts | 338° |
| 2026-04-18 05:53 | 48.91885 | 11.39529 | 24712 ft | 377 kts | 338° |
| 2026-04-18 05:54 | 48.94340 | 11.38089 | 25241 ft | 379 kts | 338° |
| 2026-04-18 05:54 | 48.96813 | 11.36639 | 25758 ft | 382 kts | 338° |
| 2026-04-18 05:54 | 48.99299 | 11.35184 | 26250 ft | 385 kts | 338° |
| 2026-04-18 05:54 | 49.01805 | 11.33713 | 26738 ft | 387 kts | 338° |
| 2026-04-18 05:55 | 49.04327 | 11.32233 | 27213 ft | 389 kts | 338° |
| 2026-04-18 05:55 | 49.06861 | 11.30743 | 27673 ft | 392 kts | 338° |
| 2026-04-18 05:55 | 49.09415 | 11.29240 | 28111 ft | 394 kts | 338° |
| 2026-04-18 05:55 | 49.11976 | 11.27728 | 28556 ft | 396 kts | 338° |
| 2026-04-18 05:56 | 49.14560 | 11.26200 | 28993 ft | 399 kts | 338° |
| 2026-04-18 05:56 | 49.17154 | 11.24667 | 29407 ft | 401 kts | 338° |
| 2026-04-18 05:56 | 49.19783 | 11.23200 | 29824 ft | 404 kts | 343° |
| 2026-04-18 05:56 | 49.22547 | 11.22326 | 30226 ft | 407 kts | 352° |
| 2026-04-18 05:57 | 49.28253 | 11.22178 | 30990 ft | 413 kts | 358° |
| 2026-04-18 05:57 | 49.31136 | 11.22209 | 31364 ft | 415 kts | 359° |
| 2026-04-18 05:57 | 49.34035 | 11.22241 | 31716 ft | 417 kts | 358° |
| 2026-04-18 05:58 | 49.36939 | 11.22270 | 32149 ft | 417 kts | 358° |
| 2026-04-18 05:58 | 49.39837 | 11.22295 | 32638 ft | 416 kts | 358° |
| 2026-04-18 05:58 | 49.42683 | 11.22316 | 33112 ft | 414 kts | 358° |
| 2026-04-18 05:58 | 49.45559 | 11.22334 | 33585 ft | 412 kts | 358° |
| 2026-04-18 05:59 | 49.48458 | 11.22355 | 34055 ft | 411 kts | 358° |
| 2026-04-18 05:59 | 49.51280 | 11.22380 | 34511 ft | 409 kts | 358° |
| 2026-04-18 05:59 | 49.54121 | 11.22406 | 34937 ft | 408 kts | 358° |
| 2026-04-18 05:59 | 49.56967 | 11.22428 | 35290 ft | 408 kts | 358° |
| 2026-04-18 06:00 | 49.59800 | 11.22438 | 35539 ft | 407 kts | 358° |
| 2026-04-18 06:00 | 49.62633 | 11.22439 | 35792 ft | 407 kts | 358° |
| 2026-04-18 06:00 | 49.65459 | 11.22439 | 36047 ft | 406 kts | 358° |
| 2026-04-18 06:00 | 49.68286 | 11.22440 | 36187 ft | 406 kts | 358° |
| 2026-04-18 06:01 | 49.71085 | 11.22442 | 36213 ft | 399 kts | 358° |
| 2026-04-18 06:01 | 49.76595 | 11.22455 | 36211 ft | 394 kts | 358° |
| 2026-04-18 06:02 | 49.82079 | 11.22483 | 36210 ft | 394 kts | 358° |
| 2026-04-18 06:02 | 49.87562 | 11.22520 | 36210 ft | 394 kts | 358° |
| 2026-04-18 06:03 | 49.93039 | 11.22554 | 36210 ft | 393 kts | 358° |
| 2026-04-18 06:03 | 49.98516 | 11.22593 | 36205 ft | 393 kts | 358° |
| 2026-04-18 06:04 | 50.03985 | 11.22617 | 36199 ft | 393 kts | 357° |
| 2026-04-18 06:04 | 50.09466 | 11.22645 | 36194 ft | 394 kts | 357° |
| 2026-04-18 06:05 | 50.14955 | 11.22683 | 36190 ft | 394 kts | 357° |
| 2026-04-18 06:05 | 50.20441 | 11.22708 | 36190 ft | 394 kts | 357° |
| 2026-04-18 06:06 | 50.25930 | 11.22742 | 36191 ft | 394 kts | 357° |
| 2026-04-18 06:06 | 50.31420 | 11.22783 | 36186 ft | 395 kts | 357° |
| 2026-04-18 06:07 | 50.36901 | 11.22594 | 36190 ft | 392 kts | 349° |
| 2026-04-18 06:07 | 50.42287 | 11.21266 | 36191 ft | 392 kts | 348° |
| 2026-04-18 06:08 | 50.47687 | 11.19942 | 36180 ft | 394 kts | 348° |
| 2026-04-18 06:08 | 50.53134 | 11.18598 | 36177 ft | 398 kts | 348° |
| 2026-04-18 06:09 | 50.58615 | 11.17246 | 36173 ft | 400 kts | 348° |
| 2026-04-18 06:09 | 50.64127 | 11.15879 | 36175 ft | 401 kts | 348° |
| 2026-04-18 06:10 | 50.69648 | 11.14509 | 36174 ft | 402 kts | 348° |
| 2026-04-18 06:10 | 50.75182 | 11.13128 | 36175 ft | 403 kts | 348° |
| 2026-04-18 06:11 | 50.80719 | 11.11742 | 36171 ft | 403 kts | 348° |
| 2026-04-18 06:11 | 50.86269 | 11.10349 | 36174 ft | 404 kts | 348° |
| 2026-04-18 06:12 | 50.91786 | 11.08965 | 36172 ft | 404 kts | 348° |
| 2026-04-18 06:12 | 50.97337 | 11.07570 | 36172 ft | 404 kts | 348° |
| 2026-04-18 06:13 | 51.02898 | 11.06163 | 36175 ft | 404 kts | 348° |
| 2026-04-18 06:13 | 51.08457 | 11.04767 | 36175 ft | 405 kts | 348° |
| 2026-04-18 06:14 | 51.14022 | 11.03360 | 36176 ft | 405 kts | 348° |
| 2026-04-18 06:14 | 51.19584 | 11.01950 | 36175 ft | 405 kts | 348° |
| 2026-04-18 06:15 | 51.25153 | 11.00530 | 36174 ft | 405 kts | 347° |
| 2026-04-18 06:15 | 51.30716 | 10.99107 | 36177 ft | 405 kts | 347° |
| 2026-04-18 06:16 | 51.36279 | 10.97680 | 36178 ft | 405 kts | 347° |
| 2026-04-18 06:16 | 51.41850 | 10.96251 | 36177 ft | 405 kts | 347° |
| 2026-04-18 06:17 | 51.47415 | 10.94825 | 36176 ft | 405 kts | 347° |
| 2026-04-18 06:17 | 51.52987 | 10.93389 | 36174 ft | 405 kts | 347° |
| 2026-04-18 06:18 | 51.58557 | 10.91950 | 36175 ft | 406 kts | 347° |
| 2026-04-18 06:18 | 51.64133 | 10.90513 | 36175 ft | 406 kts | 347° |
| 2026-04-18 06:19 | 51.69551 | 10.88286 | 36175 ft | 400 kts | 335° |
| 2026-04-18 06:19 | 51.74727 | 10.84952 | 36172 ft | 400 kts | 335° |
| 2026-04-18 06:20 | 51.79911 | 10.81667 | 36173 ft | 401 kts | 335° |
| 2026-04-18 06:20 | 51.85103 | 10.78369 | 36172 ft | 401 kts | 335° |
| 2026-04-18 06:21 | 51.90289 | 10.75059 | 36169 ft | 401 kts | 335° |
| 2026-04-18 06:21 | 51.95481 | 10.71725 | 36171 ft | 401 kts | 335° |
| 2026-04-18 06:22 | 52.00670 | 10.68383 | 36171 ft | 402 kts | 335° |
| 2026-04-18 06:22 | 52.05873 | 10.65032 | 36168 ft | 402 kts | 335° |
| 2026-04-18 06:23 | 52.11072 | 10.61671 | 36169 ft | 403 kts | 335° |
| 2026-04-18 06:23 | 52.16279 | 10.58291 | 36171 ft | 403 kts | 335° |
| 2026-04-18 06:24 | 52.21483 | 10.54906 | 36172 ft | 403 kts | 334° |
| 2026-04-18 06:24 | 52.26698 | 10.51515 | 36172 ft | 403 kts | 334° |
| 2026-04-18 06:25 | 52.31909 | 10.48114 | 36173 ft | 404 kts | 334° |
| 2026-04-18 06:25 | 52.37120 | 10.44702 | 36172 ft | 404 kts | 334° |
| 2026-04-18 06:26 | 52.42337 | 10.41278 | 36174 ft | 404 kts | 334° |
| 2026-04-18 06:26 | 52.47556 | 10.37841 | 36174 ft | 404 kts | 334° |
| 2026-04-18 06:27 | 52.52762 | 10.34397 | 36175 ft | 404 kts | 334° |
| 2026-04-18 06:27 | 52.57974 | 10.30950 | 36175 ft | 403 kts | 334° |
| 2026-04-18 06:28 | 52.63183 | 10.27496 | 36178 ft | 403 kts | 334° |
| 2026-04-18 06:28 | 52.68357 | 10.23945 | 36176 ft | 402 kts | 332° |
| 2026-04-18 06:29 | 52.73440 | 10.20082 | 36174 ft | 402 kts | 331° |
| 2026-04-18 06:29 | 52.78497 | 10.16153 | 36176 ft | 402 kts | 331° |
| 2026-04-18 06:30 | 52.83574 | 10.12254 | 36176 ft | 402 kts | 332° |
| 2026-04-18 06:30 | 52.88660 | 10.08392 | 36174 ft | 403 kts | 332° |
| 2026-04-18 06:31 | 52.93751 | 10.04521 | 36173 ft | 402 kts | 332° |
| 2026-04-18 06:31 | 52.98834 | 10.00632 | 36172 ft | 403 kts | 331° |
| 2026-04-18 06:32 | 53.03926 | 9.96716 | 36064 ft | 406 kts | 331° |
| 2026-04-18 06:32 | 53.06487 | 9.94745 | 35805 ft | 407 kts | 331° |
| 2026-04-18 06:32 | 53.09059 | 9.92765 | 35555 ft | 407 kts | 331° |
| 2026-04-18 06:32 | 53.11598 | 9.90811 | 35280 ft | 406 kts | 331° |
| 2026-04-18 06:33 | 53.14186 | 9.88820 | 34789 ft | 403 kts | 330° |
| 2026-04-18 06:33 | 53.16719 | 9.86870 | 34315 ft | 400 kts | 330° |
| 2026-04-18 06:33 | 53.19242 | 9.84923 | 33828 ft | 398 kts | 330° |
| 2026-04-18 06:33 | 53.21706 | 9.83020 | 33358 ft | 395 kts | 330° |
| 2026-04-18 06:34 | 53.24192 | 9.81099 | 32882 ft | 392 kts | 330° |
| 2026-04-18 06:34 | 53.26660 | 9.79188 | 32416 ft | 389 kts | 330° |
| 2026-04-18 06:34 | 53.29102 | 9.77288 | 31956 ft | 387 kts | 330° |
| 2026-04-18 06:34 | 53.31532 | 9.75391 | 31498 ft | 384 kts | 330° |
| 2026-04-18 06:35 | 53.33944 | 9.73505 | 31054 ft | 381 kts | 330° |
| 2026-04-18 06:35 | 53.36339 | 9.71631 | 30610 ft | 379 kts | 331° |
| 2026-04-18 06:35 | 53.38715 | 9.69774 | 30188 ft | 376 kts | 331° |
| 2026-04-18 06:35 | 53.41081 | 9.67927 | 29770 ft | 374 kts | 331° |
| 2026-04-18 06:36 | 53.43433 | 9.66089 | 29352 ft | 372 kts | 331° |
| 2026-04-18 06:36 | 53.45764 | 9.64264 | 28951 ft | 369 kts | 331° |
| 2026-04-18 06:36 | 53.47335 | 9.63034 | 28678 ft | 367 kts | 331° |
| 2026-04-18 06:36 | 53.49612 | 9.61248 | 28281 ft | 365 kts | 331° |
| 2026-04-18 06:37 | 53.51933 | 9.59422 | 27871 ft | 362 kts | 331° |
| 2026-04-18 06:37 | 53.54197 | 9.57634 | 27472 ft | 359 kts | 331° |
| 2026-04-18 06:37 | 53.56450 | 9.55856 | 27058 ft | 356 kts | 331° |
| 2026-04-18 06:37 | 53.58655 | 9.54116 | 26654 ft | 353 kts | 331° |
| 2026-04-18 06:38 | 53.60893 | 9.52345 | 26231 ft | 350 kts | 331° |
| 2026-04-18 06:38 | 53.63090 | 9.50608 | 25808 ft | 347 kts | 331° |
| 2026-04-18 06:38 | 53.65240 | 9.48904 | 25383 ft | 345 kts | 331° |
| 2026-04-18 06:38 | 53.67405 | 9.47187 | 24944 ft | 343 kts | 331° |
| 2026-04-18 06:39 | 53.69551 | 9.45481 | 24514 ft | 340 kts | 331° |
| 2026-04-18 06:39 | 53.71686 | 9.43781 | 24078 ft | 338 kts | 331° |
| 2026-04-18 06:39 | 53.73809 | 9.42093 | 23633 ft | 336 kts | 331° |
| 2026-04-18 06:39 | 53.75919 | 9.40418 | 23202 ft | 334 kts | 331° |
| 2026-04-18 06:40 | 53.78009 | 9.38753 | 22776 ft | 332 kts | 331° |
| 2026-04-18 06:40 | 53.80095 | 9.37088 | 22344 ft | 331 kts | 331° |
| 2026-04-18 06:40 | 53.82172 | 9.35430 | 21932 ft | 329 kts | 331° |
| 2026-04-18 06:40 | 53.84235 | 9.33778 | 21520 ft | 328 kts | 331° |
| 2026-04-18 06:41 | 53.86293 | 9.32125 | 21111 ft | 326 kts | 331° |
| 2026-04-18 06:41 | 53.88342 | 9.30478 | 20703 ft | 325 kts | 331° |
| 2026-04-18 06:41 | 53.90383 | 9.28837 | 20302 ft | 324 kts | 331° |
| 2026-04-18 06:41 | 53.92413 | 9.27204 | 19901 ft | 323 kts | 331° |
| 2026-04-18 06:42 | 53.94440 | 9.25568 | 19500 ft | 322 kts | 331° |
| 2026-04-18 06:42 | 53.96462 | 9.23938 | 19104 ft | 321 kts | 331° |
| 2026-04-18 06:42 | 53.98480 | 9.22311 | 18703 ft | 321 kts | 332° |
| 2026-04-18 06:42 | 54.00491 | 9.20685 | 18314 ft | 320 kts | 331° |
| 2026-04-18 06:43 | 54.02500 | 9.19063 | 17919 ft | 319 kts | 332° |
| 2026-04-18 06:43 | 54.04504 | 9.17444 | 17538 ft | 319 kts | 332° |
| 2026-04-18 06:43 | 54.06505 | 9.15824 | 17151 ft | 318 kts | 332° |
| 2026-04-18 06:43 | 54.08497 | 9.14207 | 16769 ft | 317 kts | 332° |
| 2026-04-18 06:44 | 54.10488 | 9.12590 | 16389 ft | 316 kts | 332° |
| 2026-04-18 06:44 | 54.12470 | 9.10984 | 16019 ft | 316 kts | 332° |
| 2026-04-18 06:44 | 54.14457 | 9.09372 | 15644 ft | 316 kts | 331° |
| 2026-04-18 06:44 | 54.16429 | 9.07762 | 15269 ft | 313 kts | 332° |
| 2026-04-18 06:45 | 54.18395 | 9.06159 | 14904 ft | 313 kts | 332° |
| 2026-04-18 06:45 | 54.20353 | 9.04558 | 14538 ft | 312 kts | 332° |
| 2026-04-18 06:45 | 54.22308 | 9.02957 | 14167 ft | 311 kts | 332° |
| 2026-04-18 06:45 | 54.24258 | 9.01361 | 13789 ft | 310 kts | 332° |
| 2026-04-18 06:46 | 54.26203 | 8.99766 | 13427 ft | 309 kts | 332° |
| 2026-04-18 06:46 | 54.28140 | 8.98178 | 13052 ft | 308 kts | 332° |
| 2026-04-18 06:46 | 54.30074 | 8.96597 | 12681 ft | 307 kts | 332° |
| 2026-04-18 06:46 | 54.31996 | 8.95018 | 12301 ft | 306 kts | 332° |
| 2026-04-18 06:47 | 54.33909 | 8.93446 | 11919 ft | 304 kts | 332° |
| 2026-04-18 06:47 | 54.35817 | 8.91879 | 11540 ft | 303 kts | 332° |
| 2026-04-18 06:47 | 54.37716 | 8.90317 | 11148 ft | 303 kts | 332° |
| 2026-04-18 06:47 | 54.39612 | 8.88759 | 10758 ft | 301 kts | 332° |
| 2026-04-18 06:48 | 54.41499 | 8.87204 | 10268 ft | 303 kts | 333° |
| 2026-04-18 06:48 | 54.43402 | 8.85630 | 9859 ft | 301 kts | 332° |
| 2026-04-18 06:48 | 54.45268 | 8.84085 | 9494 ft | 298 kts | 333° |
| 2026-04-18 06:48 | 54.47133 | 8.82542 | 9068 ft | 296 kts | 332° |
| 2026-04-18 06:49 | 54.48982 | 8.81007 | 8604 ft | 294 kts | 332° |
| 2026-04-18 06:49 | 54.50817 | 8.79483 | 8160 ft | 291 kts | 333° |
| 2026-04-18 06:49 | 54.52628 | 8.77980 | 7729 ft | 287 kts | 333° |
| 2026-04-18 06:49 | 54.54393 | 8.76513 | 7316 ft | 283 kts | 332° |
| 2026-04-18 06:50 | 54.56157 | 8.75043 | 6883 ft | 280 kts | 332° |
| 2026-04-18 06:50 | 54.57904 | 8.73590 | 6457 ft | 277 kts | 332° |
| 2026-04-18 06:50 | 54.59629 | 8.72152 | 6036 ft | 273 kts | 332° |
| 2026-04-18 06:50 | 54.61323 | 8.70725 | 5620 ft | 269 kts | 329° |
| 2026-04-18 06:51 | 54.62886 | 8.69021 | 5277 ft | 261 kts | 323° |
| 2026-04-18 06:51 | 54.64311 | 8.67262 | 5215 ft | 243 kts | 323° |
| 2026-04-18 06:51 | 54.65646 | 8.65617 | 5125 ft | 228 kts | 323° |
| 2026-04-18 06:51 | 54.66906 | 8.64077 | 5032 ft | 217 kts | 323° |
| 2026-04-18 06:52 | 54.68137 | 8.62573 | 4938 ft | 216 kts | 323° |
| 2026-04-18 06:52 | 54.69354 | 8.61087 | 4861 ft | 211 kts | 323° |
| 2026-04-18 06:52 | 54.70532 | 8.59648 | 4704 ft | 205 kts | 323° |
| 2026-04-18 06:52 | 54.71694 | 8.58224 | 4461 ft | 204 kts | 323° |
| 2026-04-18 06:53 | 54.72858 | 8.56797 | 4194 ft | 206 kts | 323° |
| 2026-04-18 06:53 | 54.74033 | 8.55357 | 3922 ft | 208 kts | 323° |
| 2026-04-18 06:53 | 54.75216 | 8.53908 | 3647 ft | 208 kts | 323° |
| 2026-04-18 06:53 | 54.76401 | 8.52454 | 3369 ft | 209 kts | 323° |
| 2026-04-18 06:54 | 54.77591 | 8.50991 | 3091 ft | 210 kts | 323° |
| 2026-04-18 06:54 | 54.78783 | 8.49527 | 2816 ft | 210 kts | 323° |
| 2026-04-18 06:54 | 54.79976 | 8.48060 | 2532 ft | 211 kts | 323° |
| 2026-04-18 06:54 | 54.81170 | 8.46589 | 2251 ft | 211 kts | 324° |
| 2026-04-18 06:55 | 54.82359 | 8.45126 | 2005 ft | 207 kts | 324° |
| 2026-04-18 06:55 | 54.83520 | 8.43694 | 1696 ft | 201 kts | 324° |
| 2026-04-18 06:55 | 54.84622 | 8.42336 | 1436 ft | 190 kts | 324° |
| 2026-04-18 06:55 | 54.85629 | 8.41080 | 1257 ft | 167 kts | 323° |
| 2026-04-18 06:56 | 54.86507 | 8.39940 | 1013 ft | 151 kts | 323° |
| 2026-04-18 06:56 | 54.87352 | 8.38964 | 789 ft | 140 kts | 327° |
| 2026-04-18 06:56 | 54.88115 | 8.38021 | 610 ft | 132 kts | 323° |
| 2026-04-18 06:56 | 54.88863 | 8.37100 | 402 ft | 129 kts | 323° |
| 2026-04-18 06:57 | 54.89588 | 8.36197 | 292 ft | 129 kts | 323° |
| 2026-04-18 06:57 | 54.91034 | 8.34415 | 44 ft | 109 kts | 324° |
| 2026-04-18 06:57 | 54.91511 | 8.33819 | 41 ft | 60 kts | 324° |
| 2026-04-18 06:58 | 54.91740 | 8.33535 | 43 ft | 32 kts | 325° |
| 2026-04-18 06:58 | 54.91885 | 8.33356 | 42 ft | 18 kts | 321° |
| 2026-04-18 06:58 | 54.91867 | 8.33231 | 40 ft | 12 kts | 211° |
| 2026-04-18 06:58 | 54.91788 | 8.33178 | 40 ft | 13 kts | 194° |
| 2026-04-18 06:59 | 54.91701 | 8.33177 | 41 ft | 13 kts | 180° |
| 2026-04-18 06:59 | 54.91607 | 8.33176 | 41 ft | 14 kts | 180° |
| 2026-04-18 06:59 | 54.91506 | 8.33176 | 41 ft | 13 kts | 178° |
| 2026-04-18 06:59 | 54.91430 | 8.33231 | 39 ft | 10 kts | 149° |
| 2026-04-18 07:00 | 54.91386 | 8.33197 | 39 ft | 8 kts | 253° |
| 2026-04-18 07:00 | 54.91386 | 8.33135 | 40 ft | 3 kts | 269° |
| 2026-04-18 07:00 | 54.91386 | 8.33115 | 40 ft | 0 kts | 269° |